Time;durP1;ratioP1;P1;durP2;ratioP2;P2;SDS_P1;SDS_P2;PMS_P1;PMS_P2;Temp;Humidity;BMP_temperature;BMP_pressure;BME280_temperature;BME280_humidity;BME280_pressure;Samples;Min_cycle;Max_cycle;Signal;HPM_P1;HPM_P2
2023/07/04 00:01:20;;;;;;;2.17;1.77;;;16.10;99.90;;;15.87;100.00;97101.56;5010917;28;20037;-38
2023/07/04 00:03:54;;;;;;;4.38;2.00;;;16.10;99.90;;;15.87;100.00;97106.03;5016152;28;20437;-38
2023/07/04 00:06:20;;;;;;;2.80;2.10;;;16.00;99.90;;;15.80;100.00;97098.41;5016805;28;20029;-38
2023/07/04 00:08:48;;;;;;;3.38;1.67;;;16.00;99.90;;;15.78;100.00;97103.00;5011052;28;20422;-38
2023/07/04 00:11:14;;;;;;;2.55;1.60;;;15.90;99.90;;;15.75;100.00;97103.16;5011300;28;20499;-38
2023/07/04 00:13:40;;;;;;;4.05;1.92;;;15.90;99.90;;;15.72;100.00;97100.69;5013974;28;20052;-40
2023/07/04 00:16:09;;;;;;;3.38;1.80;;;15.90;99.90;;;15.73;100.00;97090.91;5015413;28;20160;-38
2023/07/04 00:18:36;;;;;;;3.97;1.90;;;15.90;99.90;;;15.71;100.00;97090.16;5019127;28;20154;-38
2023/07/04 00:21:04;;;;;;;3.22;1.70;;;15.90;99.90;;;15.69;100.00;97098.22;5007803;28;20567;-38
2023/07/04 00:23:34;;;;;;;3.08;1.52;;;15.80;99.90;;;15.69;100.00;97100.03;5018346;28;20101;-38
2023/07/04 00:26:09;;;;;;;2.90;1.80;;;15.90;99.90;;;15.73;100.00;97094.41;5013895;28;20137;-38
2023/07/04 00:28:38;;;;;;;2.33;1.30;;;15.90;99.90;;;15.80;100.00;97102.91;5015565;28;20052;-38
2023/07/04 00:31:06;;;;;;;1.88;1.55;;;16.00;99.90;;;15.88;100.00;97090.00;5012211;28;20081;-38
2023/07/04 00:33:33;;;;;;;3.78;1.55;;;16.10;99.90;;;15.91;100.00;97078.28;5013689;28;20118;-38
2023/07/04 00:36:05;;;;;;;3.20;1.92;;;16.20;99.90;;;16.05;100.00;97082.72;4996734;28;20078;-38
2023/07/04 00:38:32;;;;;;;3.40;1.63;;;16.20;99.90;;;16.11;100.00;97085.00;5014021;28;20040;-39
2023/07/04 00:41:22;;;;;;;1.98;1.60;;;16.30;99.90;;;16.10;100.00;97086.81;5012195;28;20710;-40
2023/07/04 00:44:19;;;;;;;2.15;1.42;;;16.30;99.90;;;16.08;100.00;97094.03;5011801;28;20074;-39
2023/07/04 00:46:52;;;;;;;2.78;1.40;;;16.20;99.90;;;16.07;100.00;97097.63;5013461;28;20156;-39
2023/07/04 00:49:37;;;;;;;5.15;1.70;;;16.20;99.90;;;16.09;100.00;97103.69;5020846;28;20033;-38
2023/07/04 00:52:17;;;;;;;3.42;1.65;;;16.30;99.90;;;16.09;100.00;97100.19;5020845;28;20464;-38
2023/07/04 00:54:54;;;;;;;3.25;1.70;;;16.20;99.90;;;16.06;100.00;97090.63;4996496;28;20494;-39
2023/07/04 00:57:22;;;;;;;5.25;1.48;;;16.30;99.90;;;16.14;100.00;97101.59;5016760;28;20203;-38
2023/07/04 00:59:57;;;;;;;2.63;1.75;;;16.30;99.90;;;16.20;100.00;97097.69;5020745;28;20037;-41
2023/07/04 01:02:34;;;;;;;2.88;1.80;;;16.30;99.90;;;16.24;100.00;97101.88;4999402;28;20040;-39
2023/07/04 01:05:03;;;;;;;4.38;2.00;;;16.40;99.90;;;16.28;100.00;97097.22;5012366;28;20033;-39
2023/07/04 01:07:46;;;;;;;4.60;2.30;;;16.40;99.90;;;16.31;100.00;97102.31;5019212;28;20035;-39
2023/07/04 01:10:23;;;;;;;2.83;1.70;;;16.50;99.90;;;16.34;100.00;97104.78;4999036;28;20544;-39
2023/07/04 01:12:49;;;;;;;2.10;1.70;;;16.50;99.90;;;16.37;100.00;97107.25;5019215;28;20037;-38
2023/07/04 01:15:16;;;;;;;3.08;1.63;;;16.50;99.90;;;16.38;100.00;97103.63;5015360;28;20040;-38
2023/07/04 01:17:41;;;;;;;3.67;2.00;;;16.50;99.90;;;16.41;100.00;97106.09;5015154;28;20041;-40
2023/07/04 01:20:10;;;;;;;3.47;1.80;;;16.60;99.90;;;16.43;100.00;97104.19;5012768;28;20094;-39
2023/07/04 01:22:59;;;;;;;5.10;2.22;;;16.60;99.90;;;16.45;100.00;97102.28;5010654;28;20040;-40
2023/07/04 01:25:41;;;;;;;4.60;1.70;;;16.60;99.90;;;16.46;100.00;97108.47;5015027;28;20040;-38
2023/07/04 01:28:07;;;;;;;3.72;2.08;;;16.60;99.90;;;16.47;100.00;97104.84;5000318;28;20064;-39
2023/07/04 01:30:38;;;;;;;4.65;1.60;;;16.60;99.90;;;16.49;100.00;97097.59;5018570;28;20261;-38
2023/07/04 01:33:05;;;;;;;3.70;2.28;;;16.60;99.90;;;16.36;100.00;97082.44;5000987;28;20037;-39
2023/07/04 01:35:35;;;;;;;2.65;1.90;;;16.60;99.90;;;16.51;100.00;97098.34;5008447;28;20467;-39
2023/07/04 01:38:20;;;;;;;4.15;2.00;;;16.70;99.90;;;16.52;100.00;97100.06;5020401;28;20037;-39
2023/07/04 01:40:45;;;;;;;2.97;1.90;;;16.70;99.90;;;16.52;100.00;97102.72;5016381;28;20060;-39
2023/07/04 01:43:11;;;;;;;3.45;2.00;;;16.70;99.90;;;16.50;100.00;97096.66;5012415;28;20120;-40
2023/07/04 01:45:37;;;;;;;3.78;2.00;;;16.70;99.90;;;16.50;100.00;97100.16;5014785;28;23012;-38
2023/07/04 01:48:03;;;;;;;5.70;2.25;;;16.70;99.90;;;16.47;100.00;97092.38;5021823;28;20033;-38
2023/07/04 01:50:28;;;;;;;6.13;2.00;;;16.60;99.90;;;16.41;100.00;97095.44;5021182;28;20524;-38
2023/07/04 01:52:54;;;;;;;4.05;1.95;;;16.60;99.90;;;16.36;100.00;97105.53;5023343;28;20533;-38
2023/07/04 01:55:20;;;;;;;3.92;2.00;;;16.50;99.90;;;16.29;100.00;97110.41;5015117;28;20909;-38
2023/07/04 01:57:47;;;;;;;2.40;1.63;;;16.50;99.90;;;16.23;100.00;97098.34;5022558;28;20159;-38
2023/07/04 02:00:13;;;;;;;4.57;2.38;;;16.40;99.90;;;16.21;100.00;97102.91;5014216;28;20455;-39
2023/07/04 02:02:40;;;;;;;3.17;1.80;;;16.40;99.90;;;16.17;100.00;97098.75;5018563;28;20040;-40
2023/07/04 02:05:06;;;;;;;3.25;1.88;;;16.40;99.90;;;16.15;100.00;97105.09;5015597;28;20151;-39
2023/07/04 02:07:32;;;;;;;5.05;2.10;;;16.30;99.90;;;16.07;100.00;97097.63;4997951;28;20033;-39
2023/07/04 02:09:59;;;;;;;2.65;1.90;;;16.30;99.90;;;16.12;100.00;97100.84;5009954;28;20029;-39
2023/07/04 02:12:25;;;;;;;4.78;1.85;;;16.30;99.90;;;16.12;100.00;97103.50;5005243;28;20388;-39
2023/07/04 02:14:50;;;;;;;2.17;1.60;;;16.30;99.90;;;16.15;100.00;97102.44;5018076;28;20076;-38
2023/07/04 02:17:16;;;;;;;3.92;1.92;;;16.30;99.90;;;16.17;100.00;97098.75;5012100;28;20057;-40
2023/07/04 02:19:42;;;;;;;4.20;1.88;;;16.30;99.90;;;16.19;100.00;97099.50;5020593;28;20028;-39
2023/07/04 02:22:08;;;;;;;2.38;1.65;;;16.40;99.90;;;16.19;100.00;97088.03;5015489;28;20052;-39
2023/07/04 02:24:34;;;;;;;4.40;1.77;;;16.40;99.90;;;16.26;100.00;97101.75;5019119;28;20584;-38
2023/07/04 02:27:00;;;;;;;3.28;1.80;;;16.40;99.90;;;16.28;100.00;97100.72;5018230;28;20162;-38
2023/07/04 02:29:26;;;;;;;2.63;1.73;;;16.40;99.90;;;16.27;100.00;97096.34;5021997;28;20052;-38
2023/07/04 02:31:51;;;;;;;3.22;1.95;;;16.50;99.90;;;16.29;100.00;97098.91;5019236;28;20447;-39
2023/07/04 02:34:17;;;;;;;2.30;1.50;;;16.40;99.90;;;16.24;100.00;97107.22;5019410;28;20094;-38
2023/07/04 02:36:43;;;;;;;2.63;1.50;;;16.40;99.90;;;16.15;100.00;97103.31;5019498;28;20043;-38
2023/07/04 02:39:09;;;;;;;3.50;1.85;;;16.30;99.90;;;16.07;100.00;97107.44;5014134;28;20037;-39
2023/07/04 02:41:35;;;;;;;2.42;1.55;;;16.20;99.90;;;15.95;100.00;97098.41;5021429;28;20033;-39
2023/07/04 02:44:01;;;;;;;3.10;1.63;;;16.10;99.90;;;15.88;100.00;97107.72;5019615;28;20064;-39
2023/07/04 02:46:26;;;;;;;3.00;1.70;;;16.00;99.90;;;15.77;100.00;97106.63;5017862;28;20043;-39
2023/07/04 02:48:52;;;;;;;3.92;1.80;;;16.00;99.90;;;15.70;100.00;97109.69;5020515;28;20021;-38
2023/07/04 02:51:18;;;;;;;3.13;1.80;;;15.90;99.90;;;15.65;100.00;97110.00;5013361;28;20036;-38
2023/07/04 02:53:43;;;;;;;4.28;2.03;;;15.80;99.90;;;15.61;100.00;97114.66;5015555;28;20039;-38
2023/07/04 02:56:11;;;;;;;2.72;1.70;;;15.70;99.90;;;15.58;100.00;97117.50;5017607;28;20040;-38
2023/07/04 02:58:36;;;;;;;4.22;1.80;;;15.70;99.90;;;15.59;100.00;97116.53;5021743;28;20053;-38
2023/07/04 03:01:04;;;;;;;3.22;1.90;;;15.80;99.90;;;15.61;100.00;97116.44;5026377;28;20115;-38
2023/07/04 03:03:31;;;;;;;3.97;2.10;;;15.80;99.90;;;15.51;100.00;97094.06;5030827;28;20329;-38
2023/07/04 03:05:58;;;;;;;3.67;1.67;;;15.80;99.90;;;15.69;100.00;97122.16;5021860;28;20036;-38
2023/07/04 03:08:23;;;;;;;3.10;2.05;;;15.90;99.90;;;15.69;100.00;97113.31;5014446;28;20033;-38
2023/07/04 03:10:49;;;;;;;3.78;1.83;;;15.90;99.90;;;15.77;100.00;97117.25;5018297;28;20041;-39
2023/07/04 03:13:15;;;;;;;2.40;1.70;;;16.00;99.90;;;15.79;100.00;97120.66;5013392;28;20047;-38
2023/07/04 03:15:41;;;;;;;2.13;1.70;;;16.00;99.90;;;15.84;100.00;97129.22;5016077;28;20091;-38
2023/07/04 03:18:07;;;;;;;3.85;1.85;;;16.00;99.90;;;15.88;100.00;97129.00;5017755;28;20060;-38
2023/07/04 03:20:33;;;;;;;2.28;1.40;;;16.10;99.90;;;15.84;100.00;97118.56;5014995;28;20037;-38
2023/07/04 03:22:59;;;;;;;3.33;1.73;;;16.10;99.90;;;15.91;100.00;97120.84;5021189;28;20044;-39
2023/07/04 03:25:25;;;;;;;4.75;1.42;;;16.10;99.90;;;15.92;100.00;97133.19;5013252;28;20722;-38
2023/07/04 03:27:51;;;;;;;2.55;1.50;;;16.10;99.90;;;15.93;100.00;97129.56;5017374;28;20071;-38
2023/07/04 03:30:17;;;;;;;2.65;1.45;;;16.10;99.90;;;15.93;100.00;97126.91;5012790;28;20537;-38
2023/07/04 03:32:43;;;;;;;2.60;1.55;;;16.10;99.90;;;15.90;100.00;97127.97;5026203;28;20770;-38
2023/07/04 03:35:09;;;;;;;2.63;1.50;;;16.10;99.90;;;15.92;100.00;97130.53;5024504;28;20673;-39
2023/07/04 03:37:36;;;;;;;2.83;1.33;;;16.10;99.90;;;15.93;100.00;97133.06;5027766;28;20029;-39
2023/07/04 03:40:07;;;;;;;2.10;1.52;;;16.10;99.90;;;15.95;100.00;97130.31;5009965;28;21111;-38
2023/07/04 03:42:35;;;;;;;2.35;1.52;;;16.10;99.90;;;15.91;100.00;97120.84;5021645;28;20404;-38
2023/07/04 03:45:01;;;;;;;1.70;1.60;;;16.10;99.90;;;16.00;100.00;97130.88;5025268;28;20025;-39
2023/07/04 03:47:26;;;;;;;2.17;1.52;;;16.20;99.90;;;16.01;100.00;97122.81;5017507;28;20932;-39
2023/07/04 03:49:52;;;;;;;2.47;1.65;;;16.20;99.90;;;16.03;100.00;97123.56;5028253;28;20228;-39
2023/07/04 03:52:18;;;;;;;3.28;1.58;;;16.20;99.90;;;16.06;100.00;97125.19;5017725;28;20063;-39
2023/07/04 03:54:43;;;;;;;1.85;1.20;;;16.20;99.90;;;16.09;100.00;97122.31;5024107;28;20116;-40
2023/07/04 03:57:09;;;;;;;2.42;1.52;;;16.30;99.90;;;16.14;100.00;97133.53;5016356;28;20323;-40
2023/07/04 03:59:35;;;;;;;1.65;1.42;;;16.30;99.90;;;16.16;100.00;97126.31;5021429;28;20021;-39
2023/07/04 04:02:01;;;;;;;2.42;1.58;;;16.40;99.90;;;16.23;100.00;97124.94;5020365;28;20120;-40
2023/07/04 04:04:27;;;;;;;2.78;1.48;;;16.40;99.90;;;16.29;100.00;97126.34;5026632;28;20067;-39
2023/07/04 04:06:56;;;;;;;2.22;1.70;;;16.50;99.90;;;16.30;100.00;97122.75;5019900;28;20163;-39
2023/07/04 04:09:23;;;;;;;3.63;1.70;;;16.50;99.90;;;16.27;100.00;97120.28;5015845;28;20659;-38
2023/07/04 04:11:50;;;;;;;2.70;1.60;;;16.50;99.90;;;16.33;100.00;97127.03;5019301;28;20040;-40
2023/07/04 04:14:16;;;;;;;3.20;1.55;;;16.50;99.90;;;16.34;100.00;97129.59;5017547;28;20036;-39
2023/07/04 04:16:41;;;;;;;2.47;1.52;;;16.50;99.90;;;16.36;100.00;97127.69;5023254;28;20102;-39
2023/07/04 04:19:07;;;;;;;1.80;1.40;;;16.50;99.90;;;16.37;100.00;97128.56;5014256;28;20136;-40
2023/07/04 04:21:33;;;;;;;2.03;1.35;;;16.50;99.90;;;16.42;100.00;97131.78;5023477;28;20056;-39
2023/07/04 04:23:58;;;;;;;1.85;1.23;;;16.60;99.90;;;16.47;100.00;97124.31;5025621;28;20068;-39
2023/07/04 04:26:25;;;;;;;2.45;1.42;;;16.60;99.90;;;16.53;100.00;97129.25;5014961;28;20032;-40
2023/07/04 04:28:50;;;;;;;1.52;1.20;;;16.70;99.90;;;16.59;100.00;97126.19;5021932;28;20044;-39
2023/07/04 04:31:17;;;;;;;1.63;1.30;;;16.70;99.90;;;16.68;100.00;97118.56;5017126;28;20033;-41
2023/07/04 04:33:42;;;;;;;2.22;1.42;;;16.80;99.90;;;16.77;100.00;97129.44;5017507;28;20134;-39
2023/07/04 04:36:08;;;;;;;2.97;1.80;;;16.90;99.90;;;16.82;100.00;97117.66;4995892;28;20515;-39
2023/07/04 04:38:36;;;;;;;2.45;1.45;;;17.00;99.90;;;16.98;100.00;97127.19;5016215;28;20380;-39
2023/07/04 04:41:09;;;;;;;2.42;1.25;;;17.10;99.90;;;17.06;100.00;97131.16;5015847;28;20290;-39
2023/07/04 04:43:34;;;;;;;2.63;1.60;;;17.20;99.90;;;17.15;100.00;97136.69;5011582;28;20029;-39
2023/07/04 04:46:02;;;;;;;2.35;1.60;;;17.30;99.90;;;17.22;100.00;97137.13;5008287;28;20037;-40
2023/07/04 04:48:35;;;;;;;2.90;1.52;;;17.30;99.90;;;17.27;100.00;97132.34;5006217;28;20043;-39
2023/07/04 04:51:09;;;;;;;2.55;1.50;;;17.40;99.90;;;17.38;100.00;97146.78;5006594;28;20052;-40
2023/07/04 04:53:36;;;;;;;2.33;1.52;;;17.50;99.90;;;17.39;100.00;97141.34;5029586;28;20044;-38
2023/07/04 04:56:09;;;;;;;3.30;1.33;;;17.50;99.90;;;17.43;100.00;97149.97;5031401;28;20510;-38
2023/07/04 04:58:36;;;;;;;2.55;1.55;;;17.50;99.90;;;17.45;100.00;97150.72;5030206;28;20099;-39
2023/07/04 05:01:24;;;;;;;2.63;1.55;;;17.60;99.90;;;17.56;100.00;97145.50;5031395;28;21214;-39
2023/07/04 05:03:55;;;;;;;2.08;1.40;;;17.60;99.90;;;17.65;100.00;97146.66;5032386;28;20033;-39
2023/07/04 05:06:23;;;;;;;2.40;1.48;;;17.80;99.90;;;17.85;100.00;97154.16;5025292;28;20029;-38
2023/07/04 05:08:50;;;;;;;2.28;1.35;;;17.90;99.90;;;17.98;100.00;97154.16;5015426;28;20024;-39
2023/07/04 05:11:16;;;;;;;4.40;1.60;;;18.10;99.90;;;18.11;100.00;97148.81;5027241;28;20092;-40
2023/07/04 05:13:45;;;;;;;2.38;1.50;;;18.20;99.90;;;18.21;100.00;97149.81;5028914;28;20040;-40
2023/07/04 05:16:14;;;;;;;2.50;1.60;;;18.30;99.90;;;18.24;100.00;97164.78;5031039;28;20034;-39
2023/07/04 05:18:42;;;;;;;2.50;1.63;;;18.40;99.90;;;18.21;100.00;97159.66;5025023;28;20112;-39
2023/07/04 05:21:16;;;;;;;3.45;1.50;;;18.40;99.90;;;18.29;100.00;97167.97;5023970;28;20124;-41
2023/07/04 05:23:44;;;;;;;2.42;1.58;;;18.40;99.90;;;18.25;100.00;97171.81;5010294;28;20024;-39
2023/07/04 05:26:17;;;;;;;2.70;1.58;;;18.40;99.90;;;18.21;100.00;97167.66;5010663;28;20099;-39
2023/07/04 05:28:43;;;;;;;2.55;1.80;;;18.30;99.90;;;18.22;100.00;97169.38;5028213;28;20052;-40
2023/07/04 05:31:14;;;;;;;2.95;1.85;;;18.30;99.90;;;18.24;100.00;97175.47;5027374;28;20505;-40
2023/07/04 05:33:40;;;;;;;4.55;1.88;;;18.30;99.90;;;18.24;100.00;97160.28;5030399;28;20556;-38
2023/07/04 05:36:17;;;;;;;4.00;2.00;;;18.30;99.90;;;18.38;100.00;97169.13;5013077;28;20056;-38
2023/07/04 05:38:46;;;;;;;2.75;1.60;;;18.40;99.90;;;18.47;100.00;97155.97;5029169;28;20108;-38
2023/07/04 05:41:15;;;;;;;4.00;1.58;;;18.50;99.90;;;18.74;100.00;97178.94;5033106;28;20060;-39
2023/07/04 05:43:42;;;;;;;3.17;2.00;;;18.70;99.90;;;18.84;100.00;97174.66;5024637;28;20029;-38
2023/07/04 05:46:10;;;;;;;2.80;1.55;;;18.90;99.90;;;18.91;100.00;97174.19;5025482;28;20148;-39
2023/07/04 05:48:37;;;;;;;3.40;1.83;;;18.90;99.90;;;18.95;100.00;97173.88;5027795;28;20037;-39
2023/07/04 05:51:06;;;;;;;3.08;1.88;;;19.00;99.90;;;18.93;100.00;97178.44;5026812;28;20036;-39
2023/07/04 05:53:35;;;;;;;2.80;1.70;;;19.00;99.90;;;18.96;100.00;97182.72;5028770;28;20029;-40
2023/07/04 05:56:11;;;;;;;2.70;1.63;;;19.00;99.90;;;18.98;100.00;97178.13;5026231;28;20775;-39
2023/07/04 05:58:39;;;;;;;6.38;1.90;;;19.00;99.90;;;19.09;100.00;97180.84;5030672;28;20574;-39
2023/07/04 06:01:08;;;;;;;5.40;2.17;;;19.10;99.90;;;19.25;100.00;97189.41;5024472;28;20083;-38
2023/07/04 06:03:34;;;;;;;3.58;1.70;;;19.20;99.90;;;19.54;100.00;97186.38;5027453;28;20171;-39
2023/07/04 06:06:02;;;;;;;3.92;2.00;;;19.50;99.90;;;19.86;97.15;97188.38;5031423;28;20033;-39
2023/07/04 06:08:28;;;;;;;3.33;1.90;;;19.80;99.90;;;20.06;94.13;97185.97;5017239;28;20047;-38
2023/07/04 06:11:02;;;;;;;5.50;1.65;;;20.10;99.90;;;20.11;92.38;97179.28;5032543;28;20032;-39
2023/07/04 06:13:28;;;;;;;3.38;2.33;;;20.20;99.90;;;20.22;91.18;97186.44;5030404;28;20122;-40
2023/07/04 06:15:54;;;;;;;5.70;2.50;;;20.20;99.90;;;20.23;89.38;97196.19;5033970;28;20425;-40
2023/07/04 06:18:21;;;;;;;4.75;2.35;;;20.30;99.90;;;20.20;89.17;97191.06;5034365;28;20040;-40
2023/07/04 06:20:47;;;;;;;3.72;2.28;;;20.30;99.90;;;20.23;87.30;97196.19;5026142;28;20108;-39
2023/07/04 06:23:14;;;;;;;5.13;2.25;;;20.30;99.90;;;20.37;86.66;97193.28;5021757;28;20495;-39
2023/07/04 06:25:39;;;;;;;4.20;1.95;;;20.40;99.90;;;20.58;84.54;97185.34;5027221;28;20100;-39
2023/07/04 06:28:05;;;;;;;4.07;2.13;;;20.60;99.90;;;20.71;81.81;97189.72;5023179;28;20412;-38
2023/07/04 06:30:34;;;;;;;3.35;2.08;;;20.80;99.90;;;20.70;80.18;97183.50;5026209;28;20040;-38
2023/07/04 06:33:03;;;;;;;3.47;2.03;;;20.80;99.90;;;20.70;78.10;97194.22;5014056;28;20126;-39
2023/07/04 06:35:30;;;;;;;5.13;2.10;;;20.80;99.90;;;20.59;81.56;97194.22;5025447;28;20040;-38
2023/07/04 06:37:56;;;;;;;6.25;2.30;;;20.80;99.90;;;20.59;80.40;97189.69;5024699;28;20599;-38
2023/07/04 06:40:22;;;;;;;5.13;2.20;;;20.70;99.90;;;20.54;80.51;97186.53;5023057;28;20450;-38
2023/07/04 06:42:48;;;;;;;7.47;2.30;;;20.80;99.90;;;20.68;78.83;97198.84;5015402;28;20033;-38
2023/07/04 06:45:13;;;;;;;5.30;1.98;;;20.80;99.90;;;20.72;77.39;97197.63;5029626;28;20120;-38
2023/07/04 06:47:39;;;;;;;4.07;2.22;;;20.80;99.90;;;20.76;75.93;97198.22;5033011;28;20064;-38
2023/07/04 06:50:06;;;;;;;7.38;2.03;;;20.90;99.90;;;20.85;74.79;97204.66;5031740;28;20036;-38
2023/07/04 06:52:33;;;;;;;3.47;2.13;;;21.00;99.90;;;20.84;73.04;97205.66;5031404;28;20031;-38
2023/07/04 06:54:59;;;;;;;4.80;2.30;;;21.00;99.90;;;20.89;74.09;97206.97;5035540;28;20447;-38
2023/07/04 06:57:24;;;;;;;2.47;2.00;;;21.00;99.90;;;20.99;73.17;97204.38;5027256;28;20475;-38
2023/07/04 06:59:51;;;;;;;6.65;2.28;;;21.10;99.90;;;21.12;70.59;97199.72;5029493;28;20604;-39
2023/07/04 07:02:17;;;;;;;6.45;1.90;;;21.30;99.90;;;21.34;70.42;97201.47;5025016;28;20073;-38
2023/07/04 07:04:43;;;;;;;5.88;2.28;;;21.40;99.90;;;21.56;69.04;97205.03;5009263;28;20056;-38
2023/07/04 07:07:10;;;;;;;6.00;2.35;;;21.60;99.90;;;21.83;69.93;97212.56;5021120;28;20041;-40
2023/07/04 07:09:40;;;;;;;5.10;2.10;;;21.80;99.90;;;21.98;66.94;97209.53;5025465;28;20037;-40
2023/07/04 07:12:07;;;;;;;4.63;2.50;;;22.00;99.90;;;22.07;64.93;97220.34;5027233;28;20402;-39
2023/07/04 07:14:33;;;;;;;4.88;2.28;;;22.10;99.90;;;22.15;65.91;97227.75;5025662;28;20089;-40
2023/07/04 07:16:59;;;;;;;7.13;2.10;;;22.20;99.90;;;22.17;65.34;97214.19;5023854;28;20033;-39
2023/07/04 07:19:26;;;;;;;8.35;2.72;;;22.30;99.90;;;22.07;62.26;97230.22;5020791;28;20111;-41
2023/07/04 07:21:52;;;;;;;5.85;2.58;;;22.30;99.90;;;21.96;63.89;97214.19;5023410;28;20048;-40
2023/07/04 07:24:18;;;;;;;6.38;2.80;;;22.20;99.90;;;21.90;64.69;97220.97;5022847;28;20399;-41
2023/07/04 07:26:43;;;;;;;5.65;2.60;;;22.10;99.90;;;21.77;62.94;97223.84;5026145;28;20033;-42
2023/07/04 07:29:09;;;;;;;4.25;2.22;;;22.00;99.90;;;21.76;63.35;97238.22;5024034;28;20487;-41
2023/07/04 07:31:35;;;;;;;9.88;2.55;;;22.00;99.90;;;21.66;63.74;97230.13;5025329;28;20043;-42
2023/07/04 07:34:03;;;;;;;5.35;2.58;;;21.90;99.90;;;21.74;63.46;97235.69;5004346;28;20128;-40
2023/07/04 07:36:38;;;;;;;5.75;2.55;;;21.90;99.90;;;21.87;63.93;97235.47;5022144;28;20028;-41
2023/07/04 07:39:06;;;;;;;7.78;2.72;;;21.90;99.90;;;22.01;61.92;97233.44;5049367;22;20529;-36
2023/07/04 07:41:36;;;;;;;4.68;2.33;;;22.10;99.90;;;22.23;62.20;97227.91;5049061;28;20071;-36
2023/07/04 07:44:04;;;;;;;7.00;2.67;;;22.20;99.90;;;22.27;58.27;97232.09;5045126;28;20113;-36
2023/07/04 07:46:30;;;;;;;7.75;2.70;;;22.40;99.90;;;22.39;57.03;97237.34;5038792;28;20407;-36
2023/07/04 07:48:56;;;;;;;5.80;2.90;;;22.50;99.90;;;22.28;56.33;97231.06;5043877;28;20040;-36
2023/07/04 07:51:22;;;;;;;5.78;2.70;;;22.50;99.40;;;22.39;55.47;97211.31;5041328;28;20491;-36
2023/07/04 07:53:50;;;;;;;8.15;3.20;;;22.50;99.40;;;22.47;56.50;97233.00;5045386;28;20056;-36
2023/07/04 07:56:19;;;;;;;5.38;2.78;;;22.60;99.90;;;22.44;53.87;97225.22;5043723;28;20359;-36
2023/07/04 07:58:45;;;;;;;7.00;3.05;;;22.60;98.30;;;22.46;54.65;97236.66;5045422;28;20028;-36
2023/07/04 08:01:14;;;;;;;6.78;3.08;;;22.60;98.60;;;22.54;54.46;97219.91;5042224;28;20036;-36
2023/07/04 08:03:40;;;;;;;5.45;2.75;;;22.60;98.80;;;22.66;55.02;97215.25;5045129;28;20087;-36
2023/07/04 08:06:08;;;;;;;9.27;2.80;;;22.80;98.80;;;22.81;57.02;97226.50;5046337;28;20052;-36
2023/07/04 08:08:34;;;;;;;5.95;2.75;;;22.90;99.30;;;22.86;53.27;97229.59;5046613;28;20486;-36
2023/07/04 08:11:00;;;;;;;8.32;3.28;;;22.90;98.00;;;22.80;53.16;97222.94;5045722;28;20032;-37
2023/07/04 08:13:25;;;;;;;9.88;3.20;;;22.90;97.90;;;22.77;52.82;97236.63;5044030;28;20033;-37
2023/07/04 08:15:55;;;;;;;6.30;3.13;;;22.90;97.30;;;22.82;52.69;97222.78;5045848;28;20039;-37
2023/07/04 08:18:21;;;;;;;5.97;3.00;;;22.90;97.40;;;22.95;51.51;97218.03;5035113;28;20097;-37
2023/07/04 08:21:03;;;;;;;6.93;2.95;;;23.00;97.00;;;23.17;53.33;97224.19;5049489;28;20047;-37
2023/07/04 08:23:29;;;;;;;8.02;3.25;;;23.20;97.30;;;23.29;50.59;97224.88;5045264;28;20036;-37
2023/07/04 08:25:55;;;;;;;6.22;2.90;;;23.30;96.30;;;23.39;50.32;97218.50;5049090;28;20029;-37
2023/07/04 08:28:22;;;;;;;9.30;3.10;;;23.40;96.30;;;23.37;49.88;97206.22;5036690;28;20135;-37
2023/07/04 08:31:25;;;;;;;7.80;3.45;;;23.50;95.80;;;23.37;49.85;97216.97;5043950;28;20273;-37
2023/07/04 08:33:51;;;;;;;6.35;2.80;;;23.40;95.50;;;23.43;49.68;97217.22;5044405;28;20032;-37
2023/07/04 08:36:18;;;;;;;7.55;3.10;;;23.50;95.50;;;23.52;49.99;97215.53;5040427;28;20051;-37
2023/07/04 08:38:47;;;;;;;7.20;3.15;;;23.60;95.90;;;23.47;48.84;97220.50;5047183;28;20490;-38
2023/07/04 08:42:05;;;;;;;6.95;3.08;;;23.60;94.80;;;23.35;49.58;97221.66;5046644;28;20116;-37
2023/07/04 08:44:46;;;;;;;6.38;3.33;;;23.50;95.00;;;23.28;52.59;97223.19;5016871;28;20037;-37
2023/07/04 08:47:15;;;;;;;6.90;2.88;;;23.30;96.40;;;23.22;51.52;97224.59;5015952;28;20527;-38
2023/07/04 08:49:45;;;;;;;7.35;3.08;;;23.30;95.90;;;23.10;50.49;97215.81;5027996;28;20033;-37
2023/07/04 08:52:37;;;;;;;6.68;2.75;;;23.20;95.40;;;23.00;51.72;97226.50;5047342;28;20025;-37
2023/07/04 08:55:05;;;;;;;;;;;23.00;95.80;;;22.94;53.79;97213.63;5044323;28;20410;-37
2023/07/04 08:57:45;;;;;;;6.70;3.00;;;23.00;96.70;;;22.99;54.65;97216.75;5049354;28;19924;-37
2023/07/04 09:00:39;;;;;;;8.93;3.70;;;23.00;96.80;;;23.21;49.85;97218.38;5051174;28;20035;-37
2023/07/04 09:03:30;;;;;;;8.30;3.60;;;23.30;95.00;;;23.55;50.33;97209.03;5048378;28;20032;-37
2023/07/04 09:06:08;;;;;;;13.88;3.40;;;23.70;94.60;;;23.97;48.58;97214.94;5049091;28;20482;-37
2023/07/04 09:08:49;;;;;;;6.18;3.42;;;24.10;94.40;;;24.12;47.48;97230.63;5054157;28;20463;-37
2023/07/04 09:11:17;;;;;;;6.72;3.60;;;24.40;93.10;;;24.28;49.70;97195.88;5051194;28;20024;-37
2023/07/04 09:13:47;;;;;;;6.82;3.58;;;24.50;93.40;;;24.53;48.02;97213.25;5048745;28;20285;-36
2023/07/04 09:16:40;;;;;;;7.93;4.13;;;24.80;92.80;;;24.44;46.89;97221.31;5052397;28;20043;-36
2023/07/04 09:19:09;;;;;;;5.30;3.75;;;24.80;92.30;;;24.38;47.09;97212.00;5049839;28;20025;-36
2023/07/04 09:21:39;;;;;;;7.00;3.40;;;24.60;92.70;;;24.41;48.40;97217.09;5047619;28;20033;-36
2023/07/04 09:24:05;;;;;;;7.63;3.80;;;24.50;93.30;;;24.49;47.51;97211.78;5046074;28;20104;-37
2023/07/04 09:26:49;;;;;;;8.57;3.88;;;24.60;93.20;;;24.48;46.22;97204.72;5050942;28;20182;-37
2023/07/04 09:29:22;;;;;;;6.20;3.80;;;24.70;91.90;;;24.63;45.45;97207.78;5049761;28;20594;-37
2023/07/04 09:31:53;;;;;;;;;;;24.70;91.50;;;24.47;45.66;97210.25;5049680;28;20035;-36
2023/07/04 09:35:00;;;;;;;8.38;4.03;;;24.60;91.30;;;24.56;45.74;97195.91;5043313;28;20649;-36
2023/07/04 09:37:25;;;;;;;6.72;3.60;;;24.60;91.50;;;24.47;45.82;97204.88;5006802;28;20069;-37
2023/07/04 09:39:58;;;;;;;6.68;3.88;;;24.60;91.40;;;23.96;47.57;97198.94;5052066;28;20075;-37
2023/07/04 09:42:40;;;;;;;;;;;24.30;91.90;;;24.00;49.95;97203.88;5050202;28;20033;-37
2023/07/04 09:45:11;;;;;;;6.72;3.97;;;24.20;93.50;;;24.33;49.06;97212.41;5048391;28;19927;-37
2023/07/04 09:47:47;;;;;;;5.68;3.53;;;24.40;94.00;;;24.65;47.55;97207.66;5047727;28;20440;-36
2023/07/04 09:50:23;;;;;;;6.95;3.90;;;24.70;92.40;;;24.76;45.46;97200.22;5047688;28;20031;-36
2023/07/04 09:53:09;;;;;;;7.15;3.60;;;24.90;91.00;;;25.06;46.46;97208.13;5044196;28;20307;-36
2023/07/04 09:55:40;;;;;;;9.45;4.10;;;25.00;91.70;;;24.97;46.98;97204.47;5049347;28;20028;-36
2023/07/04 09:58:18;;;;;;;6.88;4.00;;;24.90;92.10;;;24.77;47.69;97203.75;5048010;28;20419;-36
2023/07/04 10:00:59;;;;;;;7.03;3.53;;;24.70;92.20;;;24.50;48.51;97193.78;5050573;28;20048;-36
2023/07/04 10:03:25;;;;;;;6.38;3.35;;;24.60;92.50;;;24.48;48.54;97206.53;5054859;28;20525;-36
2023/07/04 10:05:51;;;;;;;6.72;3.72;;;24.50;92.70;;;24.45;48.87;97198.78;5046004;28;20020;-36
2023/07/04 10:08:17;;;;;;;7.65;4.13;;;24.40;93.40;;;24.25;47.98;97201.53;5044506;28;20482;-36
2023/07/04 10:10:52;;;;;;;9.38;4.43;;;24.40;92.10;;;24.24;50.39;97196.28;5054142;28;20043;-36
2023/07/04 10:13:23;;;;;;;5.70;3.42;;;24.30;93.30;;;24.28;49.29;97192.31;5054454;28;20115;-36
2023/07/04 10:15:50;;;;;;;11.68;4.80;;;24.30;93.30;;;24.33;44.75;97198.09;5050958;28;20067;-36
2023/07/04 10:18:29;;;;;;;7.57;4.38;;;24.40;90.00;;;24.15;43.89;97193.47;5053836;28;20106;-36
2023/07/04 10:20:58;;;;;;;9.13;4.40;;;24.30;89.20;;;23.95;45.64;97200.75;5045072;28;20036;-36
2023/07/04 10:23:26;;;;;;;7.22;4.20;;;24.10;90.40;;;23.91;45.00;97203.91;5052999;28;20056;-36
2023/07/04 10:25:54;;;;;;;6.95;4.15;;;24.00;90.00;;;23.87;46.19;97197.09;5051112;28;20062;-36